Flugplatz Mannheim-City

Bericht für EDFM

vom 15.08. um 07:20 UTC

variable Windrichtung mit 3 kt

Sichtweite 10 km oder mehr

gering bewölkt in 700 ft

aufgebrochene Bewölkung in 12000 ft

Temperatur 21.0°C

Taupunkt 19.0°C

Luftfeuchtigkeit 88%

Luftdruck 1015 hPa

EDFM 150720Z VRB03KT 9999 FEW007 BKN120 21/19 Q1015
Keine Prognose (TAF) verfügbar.
Impressum